Time;durP1;ratioP1;P1;durP2;ratioP2;P2;SDS_P1;SDS_P2;PMS_P1;PMS_P2;Temp;Humidity;BMP_temperature;BMP_pressure;BME280_temperature;BME280_humidity;BME280_pressure;Samples;Min_cycle;Max_cycle;Signal;HPM_P1;HPM_P2
2022/08/17 00:00:22;;;;;;;;;;;;;;;22.29;63.65;100925.25;5006785;28;20441;-57
2022/08/17 00:02:58;;;;;;;;;;;;;;;22.29;63.33;100921.72;5014639;28;19913;-57
2022/08/17 00:05:23;;;;;;;;;;;;;;;22.31;64.00;100920.41;5011623;28;19910;-57
2022/08/17 00:07:48;;;;;;;;;;;;;;;22.33;64.02;100912.06;5007449;28;19909;-56
2022/08/17 00:10:14;;;;;;;;;;;;;;;22.33;64.27;100918.28;5007288;28;19967;-57
2022/08/17 00:12:42;;;;;;;;;;;;;;;22.33;64.56;100901.22;5008353;28;20000;-57
2022/08/17 00:15:08;;;;;;;;;;;;;;;22.31;64.84;100912.28;5010475;28;20780;-57
2022/08/17 00:17:33;;;;;;;;;;;;;;;22.29;65.16;100894.69;5008475;28;20434;-56
2022/08/17 00:19:59;;;;;;;;;;;;;;;22.28;64.92;100895.75;5008301;28;19921;-57
2022/08/17 00:22:24;;;;;;;;;;;;;;;22.27;65.08;100903.03;5012832;28;19920;-56
2022/08/17 00:24:49;;;;;;;;;;;;;;;22.28;65.16;100906.56;5009641;28;19913;-58
2022/08/17 00:27:14;;;;;;;;;;;;;;;22.26;65.26;100904.06;5000904;28;19916;-57
2022/08/17 00:29:39;;;;;;;;;;;;;;;22.25;65.23;100897.84;5004255;28;20015;-57
2022/08/17 00:32:05;;;;;;;;;;;;;;;22.25;65.20;100888.91;5000299;28;20288;-57
2022/08/17 00:34:30;;;;;;;;;;;;;;;22.25;65.45;100883.50;5013161;28;19999;-56
2022/08/17 00:36:55;;;;;;;;;;;;;;;22.28;65.84;100876.81;5007522;28;19916;-57
2022/08/17 00:39:20;;;;;;;;;;;;;;;22.28;65.69;100865.97;4999857;28;19953;-56
2022/08/17 00:41:46;;;;;;;;;;;;;;;22.29;66.02;100857.63;5006237;28;19921;-58
2022/08/17 00:44:11;;;;;;;;;;;;;;;22.29;66.13;100857.63;5001396;28;19921;-57
2022/08/17 00:46:39;;;;;;;;;;;;;;;22.22;66.37;100862.34;5008476;28;19924;-57
2022/08/17 00:49:05;;;;;;;;;;;;;;;22.18;65.92;100858.50;5012468;28;20084;-57
2022/08/17 00:51:30;;;;;;;;;;;;;;;22.18;66.14;100866.63;5001632;28;21202;-57
2022/08/17 00:54:05;;;;;;;;;;;;;;;22.18;65.99;100864.72;5007642;28;20389;-57
2022/08/17 00:56:33;;;;;;;;;;;;;;;22.19;65.97;100863.66;5014925;28;19914;-57
2022/08/17 00:58:59;;;;;;;;;;;;;;;22.19;66.06;100868.25;5013205;28;19953;-57
2022/08/17 01:01:24;;;;;;;;;;;;;;;22.19;65.68;100868.25;5006710;28;19951;-56
2022/08/17 01:03:51;;;;;;;;;;;;;;;22.17;65.89;100864.97;5012951;28;20432;-57
2022/08/17 01:06:16;;;;;;;;;;;;;;;22.11;65.96;100872.19;5018009;28;20309;-56
2022/08/17 01:08:41;;;;;;;;;;;;;;;22.07;65.96;100875.66;5009225;28;20393;-57
2022/08/17 01:11:07;;;;;;;;;;;;;;;22.00;66.09;100869.56;4998058;28;20286;-57
2022/08/17 01:13:35;;;;;;;;;;;;;;;21.98;65.77;100874.38;5002273;28;19921;-57
2022/08/17 01:16:03;;;;;;;;;;;;;;;21.96;66.02;100875.44;5007507;28;19939;-58
2022/08/17 01:18:28;;;;;;;;;;;;;;;21.95;65.75;100862.97;5000426;28;19917;-58
2022/08/17 01:20:54;;;;;;;;;;;;;;;21.95;66.17;100860.28;5012271;28;19910;-57
2022/08/17 01:23:22;;;;;;;;;;;;;;;21.95;66.06;100856.75;5004293;28;19913;-57
2022/08/17 01:25:51;;;;;;;;;;;;;;;21.95;66.56;100862.97;5004817;28;19916;-57
2022/08/17 01:28:17;;;;;;;;;;;;;;;21.95;66.70;100852.16;5004928;28;19910;-58
2022/08/17 01:30:43;;;;;;;;;;;;;;;21.93;66.62;100853.47;4999026;28;19913;-57
2022/08/17 01:33:10;;;;;;;;;;;;;;;21.92;66.67;100847.25;5008717;28;19936;-57
2022/08/17 01:35:36;;;;;;;;;;;;;;;21.89;66.80;100846.91;5011966;28;19910;-57
2022/08/17 01:38:01;;;;;;;;;;;;;;;21.87;66.77;100840.94;5012511;28;19916;-57
2022/08/17 01:40:30;;;;;;;;;;;;;;;21.85;66.52;100840.38;5009455;28;19921;-57
2022/08/17 01:43:07;;;;;;;;;;;;;;;21.84;66.49;100850.34;5010879;28;19916;-57
2022/08/17 01:45:37;;;;;;;;;;;;;;;21.81;66.73;100839.22;5010980;28;20374;-56
2022/08/17 01:48:02;;;;;;;;;;;;;;;21.76;66.64;100842.66;5016550;28;20064;-57
2022/08/17 01:50:33;;;;;;;;;;;;;;;21.75;66.76;100840.19;5013726;28;20008;-57
2022/08/17 01:53:01;;;;;;;;;;;;;;;21.74;66.73;100843.97;5010133;28;19913;-57
2022/08/17 01:55:30;;;;;;;;;;;;;;;21.71;67.17;100839.06;5007641;28;20269;-57
2022/08/17 01:57:55;;;;;;;;;;;;;;;21.67;67.05;100841.41;5008552;28;19932;-57
2022/08/17 02:00:20;;;;;;;;;;;;;;;21.56;67.23;100826.91;5006941;28;20369;-57
2022/08/17 02:02:46;;;;;;;;;;;;;;;21.58;67.08;100849.09;5015374;28;19925;-57
2022/08/17 02:05:11;;;;;;;;;;;;;;;21.56;66.99;100848.53;5012868;28;19925;-57
2022/08/17 02:07:37;;;;;;;;;;;;;;;21.55;67.04;100849.59;5005949;28;19916;-57
2022/08/17 02:10:07;;;;;;;;;;;;;;;21.56;67.00;100845.00;5011137;28;19910;-57
2022/08/17 02:12:34;;;;;;;;;;;;;;;21.56;67.03;100845.00;5003286;28;19913;-56
2022/08/17 02:14:59;;;;;;;;;;;;;;;21.57;67.24;100841.22;5012770;28;20568;-57
2022/08/17 02:17:25;;;;;;;;;;;;;;;21.56;67.41;100842.28;5010504;28;20028;-56
2022/08/17 02:19:50;;;;;;;;;;;;;;;21.55;67.61;100840.66;5014867;28;19911;-56
2022/08/17 02:22:17;;;;;;;;;;;;;;;21.52;67.54;100843.84;5009885;28;19939;-57
2022/08/17 02:24:42;;;;;;;;;;;;;;;21.46;67.45;100836.72;5013995;28;19945;-57
2022/08/17 02:27:08;;;;;;;;;;;;;;;21.43;67.69;100842.59;5009340;28;19920;-57
2022/08/17 02:29:33;;;;;;;;;;;;;;;21.38;67.88;100845.19;5010156;28;19990;-57
2022/08/17 02:32:00;;;;;;;;;;;;;;;21.35;67.81;100838.38;5010292;28;19917;-57
2022/08/17 02:34:26;;;;;;;;;;;;;;;21.32;68.26;100846.97;5008300;28;19963;-56
2022/08/17 02:36:52;;;;;;;;;;;;;;;21.29;68.15;100847.47;5008126;28;19913;-57
2022/08/17 02:39:17;;;;;;;;;;;;;;;21.27;68.05;100847.72;5011099;28;20016;-58
2022/08/17 02:41:43;;;;;;;;;;;;;;;21.27;68.30;100845.00;5011347;28;19921;-57
2022/08/17 02:44:09;;;;;;;;;;;;;;;21.25;68.13;100843.59;5007061;28;20404;-57
2022/08/17 02:46:34;;;;;;;;;;;;;;;21.25;67.94;100839.03;5010866;28;20655;-56
2022/08/17 02:48:59;;;;;;;;;;;;;;;21.28;68.09;100840.41;5007099;28;20004;-57
2022/08/17 02:51:25;;;;;;;;;;;;;;;21.29;68.13;100839.38;5009523;28;20393;-57
2022/08/17 02:53:50;;;;;;;;;;;;;;;21.32;68.12;100838.88;5004270;28;19933;-57
2022/08/17 02:56:15;;;;;;;;;;;;;;;21.33;68.08;100832.41;5006332;28;19916;-56
2022/08/17 02:58:40;;;;;;;;;;;;;;;21.36;68.05;100825.69;5011477;28;19909;-57
2022/08/17 03:01:07;;;;;;;;;;;;;;;21.36;68.37;100831.91;5010180;28;19952;-56
2022/08/17 03:03:33;;;;;;;;;;;;;;;21.36;68.21;100820.28;5013044;28;19913;-57
2022/08/17 03:05:58;;;;;;;;;;;;;;;21.35;67.92;100819.47;5008397;28;19915;-57
2022/08/17 03:08:24;;;;;;;;;;;;;;;21.33;68.21;100816.19;5005385;28;20057;-57
2022/08/17 03:10:49;;;;;;;;;;;;;;;21.32;68.31;100819.97;5010045;28;19913;-57
2022/08/17 03:13:14;;;;;;;;;;;;;;;21.32;68.34;100817.25;5001959;28;19913;-57
2022/08/17 03:15:43;;;;;;;;;;;;;;;21.32;68.66;100818.09;5009162;28;19913;-57
2022/08/17 03:18:09;;;;;;;;;;;;;;;21.32;68.85;100809.97;5011671;28;20015;-57
2022/08/17 03:20:35;;;;;;;;;;;;;;;21.32;69.16;100812.69;5007781;28;20371;-56
2022/08/17 03:23:01;;;;;;;;;;;;;;;21.32;69.13;100812.69;5006603;28;19917;-58
2022/08/17 03:25:28;;;;;;;;;;;;;;;21.32;69.05;100809.97;5007629;28;19916;-57
2022/08/17 03:27:53;;;;;;;;;;;;;;;21.34;68.91;100807.03;5010425;28;19920;-57
2022/08/17 03:30:21;;;;;;;;;;;;;;;21.35;68.92;100808.66;5011968;28;19917;-57
2022/08/17 03:32:47;;;;;;;;;;;;;;;21.37;68.92;100821.94;5003538;28;20405;-57
2022/08/17 03:35:13;;;;;;;;;;;;;;;21.38;69.15;100815.47;5008823;28;19917;-57
2022/08/17 03:37:38;;;;;;;;;;;;;;;21.39;69.03;100814.41;5009849;28;20525;-57
2022/08/17 03:40:06;;;;;;;;;;;;;;;21.37;68.78;100820.06;5016465;28;19916;-57
2022/08/17 03:42:31;;;;;;;;;;;;;;;21.37;68.74;100817.34;5012797;28;19913;-58
2022/08/17 03:44:56;;;;;;;;;;;;;;;21.38;68.82;100818.16;5009398;28;20370;-57
2022/08/17 03:58:19;;;;;;;;;;;;;;;21.34;68.92;100828.66;5002618;28;19915;-57
2022/08/17 04:00:45;;;;;;;;;;;;;;;21.33;69.04;100827.81;5007632;28;19913;-57
2022/08/17 04:03:11;;;;;;;;;;;;;;;21.34;68.88;100829.47;5011986;28;19941;-56
2022/08/17 04:05:36;;;;;;;;;;;;;;;21.32;68.99;100834.28;5001534;28;20372;-57
2022/08/17 04:08:01;;;;;;;;;;;;;;;21.34;68.67;100844.84;5010073;28;19913;-57
2022/08/17 04:10:26;;;;;;;;;;;;;;;21.32;68.72;100853.19;5005313;28;20274;-56
2022/08/17 04:12:53;;;;;;;;;;;;;;;21.29;69.23;100875.31;5002260;28;19979;-56
2022/08/17 04:15:19;;;;;;;;;;;;;;;21.20;69.31;100874.00;5007311;28;20179;-57
2022/08/17 04:17:44;;;;;;;;;;;;;;;21.12;69.68;100878.97;5003551;28;20608;-57
2022/08/17 04:20:11;;;;;;;;;;;;;;;21.00;69.88;100889.78;5006571;28;19913;-57
2022/08/17 04:22:36;;;;;;;;;;;;;;;20.92;70.11;100882.88;5008924;28;20702;-57
2022/08/17 04:25:07;;;;;;;;;;;;;;;20.92;70.26;100879.38;5009814;28;19913;-56
2022/08/17 04:27:32;;;;;;;;;;;;;;;20.93;70.72;100878.31;5015097;28;20361;-56
2022/08/17 04:29:57;;;;;;;;;;;;;;;20.94;70.75;100877.25;5009516;28;19927;-57
2022/08/17 04:32:23;;;;;;;;;;;;;;;20.96;71.02;100878.66;4999773;28;19964;-57
2022/08/17 04:34:48;;;;;;;;;;;;;;;21.01;70.62;100884.16;5013905;28;20246;-57
2022/08/17 04:37:13;;;;;;;;;;;;;;;21.04;70.50;100889.06;5008468;28;19917;-57
2022/08/17 04:39:38;;;;;;;;;;;;;;;21.08;71.08;100888.59;5015864;28;19909;-57
2022/08/17 04:42:07;;;;;;;;;;;;;;;21.09;71.05;100891.06;5012347;28;19920;-57
2022/08/17 04:44:33;;;;;;;;;;;;;;;21.10;70.43;100890.00;5011872;28;19962;-57
2022/08/17 04:46:58;;;;;;;;;;;;;;;21.11;70.75;100888.16;5014595;28;20007;-57
2022/08/17 04:49:24;;;;;;;;;;;;;;;21.11;71.04;100882.75;5011941;28;20393;-57
2022/08/17 04:51:49;;;;;;;;;;;;;;;21.14;71.32;100891.19;5009621;28;20067;-56
2022/08/17 04:54:16;;;;;;;;;;;;;;;21.15;70.83;100892.81;5012008;28;19948;-57
2022/08/17 04:56:41;;;;;;;;;;;;;;;21.17;70.67;100896.09;5012791;28;19918;-57
2022/08/17 04:59:11;;;;;;;;;;;;;;;21.18;71.07;100895.03;5007710;28;19948;-57
2022/08/17 05:01:37;;;;;;;;;;;;;;;21.19;71.33;100918.28;5008600;28;19952;-57
2022/08/17 05:04:08;;;;;;;;;;;;;;;21.19;71.44;100929.09;5013607;28;19917;-57
2022/08/17 05:06:33;;;;;;;;;;;;;;;21.19;71.28;100914.78;5007705;28;19937;-57
2022/08/17 05:08:59;;;;;;;;;;;;;;;21.20;71.27;100903.72;5009917;28;20008;-57
2022/08/17 05:11:25;;;;;;;;;;;;;;;21.21;71.21;100924.28;5016015;28;20080;-57
2022/08/17 05:13:50;;;;;;;;;;;;;;;21.20;71.00;100917.22;5001118;28;19924;-56
2022/08/17 05:16:16;;;;;;;;;;;;;;;21.20;70.78;100900.22;5002770;28;20328;-57
2022/08/17 05:18:41;;;;;;;;;;;;;;;21.22;70.60;100909.72;5001014;28;19921;-57
2022/08/17 05:21:06;;;;;;;;;;;;;;;21.24;71.03;100904.91;5005180;28;19910;-57
2022/08/17 05:23:31;;;;;;;;;;;;;;;21.25;70.87;100898.44;5008280;28;19945;-57
2022/08/17 05:25:57;;;;;;;;;;;;;;;21.27;70.88;100926.03;5003760;28;19920;-57
2022/08/17 05:28:23;;;;;;;;;;;;;;;21.28;70.93;100905.25;5009483;28;20293;-58
2022/08/17 05:30:49;;;;;;;;;;;;;;;21.29;70.66;100918.53;5007553;28;19924;-58
2022/08/17 05:33:18;;;;;;;;;;;;;;;21.30;70.57;100908.53;5007853;28;19983;-58
2022/08/17 05:35:46;;;;;;;;;;;;;;;21.32;70.67;100904.53;5005131;28;19955;-56
2022/08/17 05:38:11;;;;;;;;;;;;;;;21.35;70.58;100903.22;5016030;28;20376;-57
2022/08/17 05:40:37;;;;;;;;;;;;;;;21.38;70.19;100891.94;5009391;28;19913;-57
2022/08/17 05:43:29;;;;;;;;;;;;;;;21.41;70.28;100896.06;5011295;28;19968;-57
2022/08/17 05:46:12;;;;;;;;;;;;;;;21.40;70.30;100894.44;4991797;28;19918;-58
2022/08/17 05:48:40;;;;;;;;;;;;;;;21.42;70.18;100886.91;4997028;28;19917;-57
2022/08/17 05:51:24;;;;;;;;;;;;;;;21.45;70.28;100889.13;4996419;28;19909;-57
2022/08/17 05:54:08;;;;;;;;;;;;;;;21.47;70.20;100876.19;4999995;28;19921;-57
2022/08/17 05:56:56;;;;;;;;;;;;;;;21.49;70.00;100874.06;5000157;28;20381;-57
2022/08/17 05:59:36;;;;;;;;;;;;;;;21.52;69.87;100881.69;4998022;28;19914;-58
2022/08/17 06:02:06;;;;;;;;;;;;;;;21.55;70.01;100895.53;5000543;28;19909;-57
2022/08/17 06:04:43;;;;;;;;;;;;;;;21.58;70.01;100888.81;4994945;28;20418;-57
2022/08/17 06:07:18;;;;;;;;;;;;;;;21.61;69.78;100882.91;4994565;28;19910;-57
2022/08/17 06:10:02;;;;;;;;;;;;;;;21.64;69.93;100885.94;4998202;28;19963;-57
2022/08/17 06:12:46;;;;;;;;;;;;;;;21.71;70.16;100893.13;5002855;28;19909;-57
2022/08/17 06:15:23;;;;;;;;;;;;;;;21.73;69.72;100886.41;4998419;28;19914;-55
2022/08/17 06:17:51;;;;;;;;;;;;;;;21.76;69.59;100888.63;5005043;28;20007;-57
2022/08/17 06:20:16;;;;;;;;;;;;;;;21.78;69.79;100888.38;5002775;28;19909;-57
2022/08/17 06:22:46;;;;;;;;;;;;;;;21.79;69.85;100888.13;5004613;28;19923;-57
2022/08/17 06:25:17;;;;;;;;;;;;;;;21.80;69.89;100899.75;5001045;28;19913;-57
2022/08/17 06:27:54;;;;;;;;;;;;;;;21.81;69.81;100913.03;5009453;28;19971;-57
2022/08/17 06:30:19;;;;;;;;;;;;;;;21.85;69.67;100916.88;5011264;28;19914;-57
2022/08/17 06:32:47;;;;;;;;;;;;;;;21.88;69.50;100927.22;5004645;28;20278;-57
2022/08/17 06:35:18;;;;;;;;;;;;;;;21.90;69.97;100929.66;5014329;28;19913;-57
2022/08/17 06:37:43;;;;;;;;;;;;;;;21.88;69.43;100940.72;5010887;28;20495;-57
2022/08/17 06:40:16;;;;;;;;;;;;;;;21.91;69.38;100939.44;5011767;28;19936;-57
2022/08/17 06:43:11;;;;;;;;;;;;;;;21.92;69.57;100939.19;5008307;28;19909;-56
2022/08/17 06:45:56;;;;;;;;;;;;;;;21.93;69.65;100943.53;5002102;28;19953;-57
2022/08/17 06:48:24;;;;;;;;;;;;;;;21.94;69.34;100930.81;5004462;28;19979;-56
2022/08/17 06:50:58;;;;;;;;;;;;;;;21.93;69.08;100935.41;5000317;28;19921;-57
2022/08/17 06:53:46;;;;;;;;;;;;;;;21.93;69.03;100921.88;5005025;28;19917;-57
2022/08/17 06:56:18;;;;;;;;;;;;;;;21.94;69.04;100937.06;5009954;28;19917;-57
2022/08/17 06:58:44;;;;;;;;;;;;;;;21.91;69.11;100937.53;5004660;28;19917;-56
2022/08/17 07:01:12;;;;;;;;;;;;;;;21.90;69.30;100941.31;5005246;28;19956;-57
2022/08/17 07:03:43;;;;;;;;;;;;;;;21.90;69.25;100938.59;5015504;28;19955;-57
2022/08/17 07:06:13;;;;;;;;;;;;;;;21.92;68.90;100944.59;5007528;28;20020;-57
2022/08/17 07:09:13;;;;;;;;;;;;;;;21.91;68.88;100942.94;5011912;28;19917;-57
2022/08/17 07:11:38;;;;;;;;;;;;;;;21.91;69.04;100948.34;4964813;28;19918;-56
2022/08/17 07:14:09;;;;;;;;;;;;;;;21.91;68.82;100948.34;5003028;28;19918;-56
2022/08/17 07:16:38;;;;;;;;;;;;;;;21.95;68.91;100954.91;5004457;28;20001;-56
2022/08/17 07:19:06;;;;;;;;;;;;;;;21.95;69.04;100954.91;5010602;28;19915;-57
2022/08/17 07:21:31;;;;;;;;;;;;;;;21.96;68.97;100953.03;5007660;28;19920;-58
2022/08/17 07:24:04;;;;;;;;;;;;;;;21.96;69.04;100948.44;5009438;28;19913;-57
2022/08/17 07:26:29;;;;;;;;;;;;;;;21.98;68.98;100948.22;5008354;28;19950;-58
2022/08/17 07:28:55;;;;;;;;;;;;;;;22.01;68.82;100957.75;5005929;28;19910;-57
2022/08/17 07:31:20;;;;;;;;;;;;;;;22.04;68.73;100958.09;5003139;28;19913;-57
2022/08/17 07:34:00;;;;;;;;;;;;;;;22.06;69.11;100955.16;5001099;28;20008;-57
2022/08/17 07:36:25;;;;;;;;;;;;;;;22.09;68.98;100969.00;5003450;28;19916;-56
2022/08/17 07:38:55;;;;;;;;;;;;;;;22.13;68.90;100972.03;5009485;28;20446;-56
2022/08/17 07:41:20;;;;;;;;;;;;;;;22.17;68.73;100971.31;5003644;28;20348;-57
2022/08/17 07:43:47;;;;;;;;;;;;;;;22.18;68.91;100970.25;5007191;28;19920;-56
2022/08/17 07:49:02;;;;;;;;;;;;;;;22.19;68.65;100971.06;5009551;28;19924;-57
2022/08/17 07:51:32;;;;;;;;;;;;;;;22.17;68.62;100979.41;5018772;28;19971;-56
2022/08/17 07:54:00;;;;;;;;;;;;;;;22.14;68.56;100979.09;5012201;28;20301;-56
2022/08/17 07:56:43;;;;;;;;;;;;;;;22.12;68.96;100984.75;5005859;28;20524;-57
2022/08/17 07:59:17;;;;;;;;;;;;;;;22.14;68.68;100992.63;5006539;28;20342;-56
2022/08/17 08:01:57;;;;;;;;;;;;;;;22.16;68.88;100985.88;5010479;28;19916;-58
2022/08/17 08:04:28;;;;;;;;;;;;;;;22.20;69.09;100997.03;4998728;28;19997;-56
2022/08/17 08:06:55;;;;;;;;;;;;;;;22.24;68.89;100998.19;5007386;28;19909;-58
2022/08/17 08:09:37;;;;;;;;;;;;;;;22.29;69.05;100997.50;5006007;28;19910;-57
2022/08/17 08:12:22;;;;;;;;;;;;;;;22.32;68.89;101005.13;5000220;28;19910;-58
2022/08/17 08:14:55;;;;;;;;;;;;;;;22.37;69.10;101005.19;5004774;28;19936;-57
2022/08/17 08:17:30;;;;;;;;;;;;;;;22.43;68.84;100999.63;5005061;28;19910;-57
2022/08/17 08:19:56;;;;;;;;;;;;;;;22.52;69.05;101003.56;5009237;28;19952;-57
2022/08/17 08:22:28;;;;;;;;;;;;;;;22.61;69.02;100995.03;5006576;28;20003;-57
2022/08/17 08:25:17;;;;;;;;;;;;;;;22.69;68.99;100994.63;5007107;28;19909;-56
2022/08/17 08:27:57;;;;;;;;;;;;;;;22.77;68.45;101005.84;5008498;28;19909;-57
2022/08/17 08:30:22;;;;;;;;;;;;;;;22.83;68.54;101001.34;5003408;28;19909;-56
2022/08/17 08:32:51;;;;;;;;;;;;;;;22.91;68.16;101000.97;5010348;28;19984;-57
2022/08/17 08:35:25;;;;;;;;;;;;;;;22.99;68.34;101000.53;5010882;28;19963;-57
2022/08/17 08:38:09;;;;;;;;;;;;;;;23.06;68.05;100990.34;5012746;28;19991;-57
2022/08/17 08:40:37;;;;;;;;;;;;;;;23.13;67.69;100985.56;5006778;28;19917;-56
2022/08/17 08:43:15;;;;;;;;;;;;;;;23.17;67.80;100988.59;5007022;28;19914;-57
2022/08/17 08:45:40;;;;;;;;;;;;;;;23.23;67.16;100982.19;5006920;28;20385;-57
2022/08/17 08:48:18;;;;;;;;;;;;;;;23.28;67.28;100978.72;5007472;28;20003;-58
2022/08/17 08:51:04;;;;;;;;;;;;;;;23.34;67.08;100956.00;5008064;28;19921;-57
2022/08/17 08:53:29;;;;;;;;;;;;;;;23.40;66.99;100958.53;5006850;28;20336;-58
2022/08/17 08:56:13;;;;;;;;;;;;;;;23.45;66.97;100968.63;5003151;28;19925;-58
2022/08/17 08:58:49;;;;;;;;;;;;;;;23.47;66.78;100994.41;4997486;28;19928;-58
2022/08/17 09:01:20;;;;;;;;;;;;;;;23.48;66.39;101003.38;5005421;28;19913;-58
2022/08/17 09:03:55;;;;;;;;;;;;;;;23.51;66.43;101019.13;5005631;28;19914;-58
2022/08/17 09:06:34;;;;;;;;;;;;;;;23.55;66.20;101017.56;5004961;28;19916;-58
2022/08/17 09:09:02;;;;;;;;;;;;;;;23.60;66.29;101005.97;5001651;28;19956;-58
2022/08/17 09:11:27;;;;;;;;;;;;;;;23.62;66.09;101001.94;5009668;28;20312;-58
2022/08/17 09:14:11;;;;;;;;;;;;;;;23.64;65.91;100980.81;5014599;28;19924;-58
2022/08/17 09:16:57;;;;;;;;;;;;;;;23.67;65.56;100971.34;5008299;28;19917;-58
2022/08/17 09:19:31;;;;;;;;;;;;;;;23.64;65.32;100967.25;4977451;28;19918;-58
2022/08/17 09:22:16;;;;;;;;;;;;;;;23.61;65.36;100975.91;5006171;28;19921;-58
2022/08/17 09:24:55;;;;;;;;;;;;;;;23.64;65.68;100983.50;5002541;28;19913;-57
2022/08/17 09:27:22;;;;;;;;;;;;;;;23.65;65.48;100998.72;4995625;28;19913;-58
2022/08/17 09:29:50;;;;;;;;;;;;;;;23.66;65.50;101000.34;5003099;28;19909;-57
2022/08/17 09:32:42;;;;;;;;;;;;;;;23.69;65.17;101007.97;5002652;28;20422;-58
2022/08/17 09:35:14;;;;;;;;;;;;;;;23.67;65.26;100996.56;5000734;28;20529;-57
2022/08/17 09:37:58;;;;;;;;;;;;;;;23.68;65.09;101003.63;5006133;28;19909;-58
2022/08/17 09:40:36;;;;;;;;;;;;;;;23.67;65.14;101010.13;5009571;28;19909;-57
2022/08/17 09:43:19;;;;;;;;;;;;;;;23.69;64.88;101009.88;5012514;28;19917;-58
2022/08/17 09:45:50;;;;;;;;;;;;;;;23.57;64.70;101015.44;5012323;28;19913;-58
2022/08/17 09:48:16;;;;;;;;;;;;;;;23.46;64.88;101019.88;5011956;28;19960;-58
2022/08/17 09:50:58;;;;;;;;;;;;;;;23.35;64.87;101023.53;4998395;28;20385;-58
2022/08/17 09:53:23;;;;;;;;;;;;;;;23.27;65.02;101031.25;4998059;28;19920;-56
2022/08/17 09:56:07;;;;;;;;;;;;;;;23.21;65.01;101037.69;5006665;28;19914;-55
2022/08/17 09:58:41;;;;;;;;;;;;;;;23.09;65.24;101046.72;5005777;28;20266;-57
2022/08/17 10:01:19;;;;;;;;;;;;;;;22.96;65.58;101052.50;5009444;28;19916;-57
2022/08/17 10:04:04;;;;;;;;;;;;;;;22.83;65.98;101061.75;5004070;28;19977;-55
2022/08/17 10:06:34;;;;;;;;;;;;;;;22.63;66.86;101087.66;5008786;28;19909;-57
2022/08/17 10:09:07;;;;;;;;;;;;;;;22.44;68.00;101095.16;5005004;28;19909;-57
2022/08/17 10:12:16;;;;;;;;;;;;;;;22.28;68.75;101099.50;5010498;28;20020;-56
2022/08/17 10:14:59;;;;;;;;;;;;;;;22.09;69.54;101096.13;5011389;28;20087;-56
2022/08/17 10:17:33;;;;;;;;;;;;;;;22.00;70.21;101096.72;5009760;28;19914;-56
2022/08/17 10:20:08;;;;;;;;;;;;;;;21.90;70.60;101091.91;5006149;28;19941;-57
2022/08/17 10:28:21;;;;;;;;;;;;;;;21.77;71.64;101089.50;5010443;28;19925;-57
2022/08/17 10:30:51;;;;;;;;;;;;;;;21.71;72.41;101099.38;5008065;28;20325;-56
2022/08/17 10:33:24;;;;;;;;;;;;;;;21.72;71.91;101094.81;4995423;28;19921;-57
2022/08/17 10:36:05;;;;;;;;;;;;;;;21.79;71.93;101095.47;4998245;28;19948;-56
2022/08/17 10:38:30;;;;;;;;;;;;;;;21.86;72.36;101101.56;5010752;28;20304;-56
2022/08/17 10:40:56;;;;;;;;;;;;;;;21.88;72.07;101104.84;5010592;28;19914;-55
2022/08/17 10:43:24;;;;;;;;;;;;;;;21.88;72.05;101108.38;5010334;28;19925;-55
2022/08/17 10:46:15;;;;;;;;;;;;;;;21.88;71.92;101102.97;5010335;28;19925;-54
2022/08/17 10:48:41;;;;;;;;;;;;;;;21.86;72.20;101102.38;4995975;28;19992;-56
2022/08/17 10:51:09;;;;;;;;;;;;;;;21.89;72.94;101093.81;4998617;28;19936;-55
2022/08/17 10:53:34;;;;;;;;;;;;;;;21.90;73.06;101081.91;4997894;28;19928;-56
2022/08/17 10:56:12;;;;;;;;;;;;;;;21.91;73.03;101078.16;5009000;28;19917;-56
2022/08/17 10:58:44;;;;;;;;;;;;;;;21.95;73.34;101063.09;5004192;28;19914;-55
2022/08/17 11:01:11;;;;;;;;;;;;;;;21.98;73.66;101055.59;5003165;28;20403;-55
2022/08/17 11:03:46;;;;;;;;;;;;;;;22.01;74.18;101049.69;5004362;28;20602;-55
2022/08/17 11:06:31;;;;;;;;;;;;;;;22.02;74.32;101044.03;5001236;28;20412;-56
2022/08/17 11:09:23;;;;;;;;;;;;;;;22.04;74.95;101041.94;4996735;28;19995;-55
2022/08/17 11:11:54;;;;;;;;;;;;;;;22.09;74.63;101030.41;5011305;28;19909;-54
2022/08/17 11:14:20;;;;;;;;;;;;;;;22.10;74.77;101034.75;5018005;28;19936;-55
2022/08/17 11:16:52;;;;;;;;;;;;;;;22.08;74.78;101042.28;5008792;28;20296;-55
2022/08/17 11:19:36;;;;;;;;;;;;;;;22.06;75.04;101041.69;5008551;28;19964;-56
2022/08/17 11:22:04;;;;;;;;;;;;;;;22.03;75.11;101048.38;5004181;28;19920;-56
2022/08/17 11:24:32;;;;;;;;;;;;;;;22.01;75.17;101046.97;5009131;28;19913;-55
2022/08/17 11:27:03;;;;;;;;;;;;;;;21.98;75.10;101047.47;5008978;28;19913;-57
2022/08/17 11:29:32;;;;;;;;;;;;;;;21.94;75.06;101047.94;5007511;28;19918;-56
2022/08/17 11:32:03;;;;;;;;;;;;;;;21.88;75.22;101046.19;5007755;28;19913;-56
2022/08/17 11:34:29;;;;;;;;;;;;;;;21.85;75.34;101053.97;5005900;28;20424;-57
2022/08/17 11:37:07;;;;;;;;;;;;;;;21.84;75.39;101061.25;5008951;28;19917;-57
2022/08/17 11:39:51;;;;;;;;;;;;;;;21.83;75.77;101059.63;5007370;28;20432;-57
2022/08/17 11:42:30;;;;;;;;;;;;;;;21.84;75.83;101066.66;5009569;28;20062;-55
2022/08/17 11:44:58;;;;;;;;;;;;;;;21.81;75.46;101077.97;4999314;28;19963;-56
2022/08/17 11:53:28;;;;;;;;;;;;;;;21.69;75.33;101084.47;5004753;28;19960;-56
2022/08/17 11:55:56;;;;;;;;;;;;;;;21.67;75.36;101086.56;4996933;28;20017;-56
2022/08/17 11:58:30;;;;;;;;;;;;;;;21.64;75.26;101095.97;5004767;28;19916;-56
2022/08/17 12:00:59;;;;;;;;;;;;;;;21.62;75.26;101098.91;5002437;28;19913;-55
2022/08/17 12:03:25;;;;;;;;;;;;;;;21.60;75.04;101109.13;5001610;28;19949;-56
2022/08/17 12:05:59;;;;;;;;;;;;;;;21.61;75.69;101112.66;5008994;28;19956;-56
2022/08/17 12:08:26;;;;;;;;;;;;;;;21.59;75.44;101120.19;5001660;28;19917;-55
2022/08/17 12:10:59;;;;;;;;;;;;;;;21.58;75.65;101127.47;5014033;28;20317;-55
2022/08/17 12:13:25;;;;;;;;;;;;;;;21.59;75.82;101128.28;5006189;28;19963;-56
2022/08/17 12:15:51;;;;;;;;;;;;;;;21.58;75.68;101126.66;5014114;28;20019;-54
2022/08/17 12:18:26;;;;;;;;;;;;;;;21.57;75.70;101119.59;5011480;28;19916;-53
2022/08/17 12:21:11;;;;;;;;;;;;;;;21.58;75.88;101126.66;5005792;28;19909;-54
2022/08/17 12:23:46;;;;;;;;;;;;;;;21.61;76.13;101134.28;5007839;28;19921;-52
2022/08/17 12:26:16;;;;;;;;;;;;;;;21.57;76.20;101133.94;5005994;28;19932;-55
2022/08/17 12:28:44;;;;;;;;;;;;;;;21.54;75.84;101137.09;5004556;28;19909;-56
2022/08/17 12:31:20;;;;;;;;;;;;;;;21.53;75.78;101142.75;5004122;28;20293;-55
2022/08/17 12:33:46;;;;;;;;;;;;;;;21.50;75.37;101135.13;5001572;28;19909;-56
2022/08/17 12:36:14;;;;;;;;;;;;;;;21.48;75.43;101140.75;5008780;28;19967;-56
2022/08/17 12:38:40;;;;;;;;;;;;;;;21.48;75.13;101134.53;5008676;28;19913;-56
2022/08/17 12:41:26;;;;;;;;;;;;;;;21.47;75.18;101138.28;5014777;28;19932;-55
2022/08/17 12:44:14;;;;;;;;;;;;;;;21.47;75.46;101149.09;5005859;28;19964;-54
2022/08/17 12:46:48;;;;;;;;;;;;;;;21.47;75.62;101143.69;5000013;28;19936;-56
2022/08/17 12:49:21;;;;;;;;;;;;;;;21.46;76.08;101142.06;5013744;28;20052;-55
2022/08/17 12:51:46;;;;;;;;;;;;;;;21.47;76.25;101124.78;5004258;28;19917;-56
2022/08/17 12:54:21;;;;;;;;;;;;;;;21.46;76.01;101129.38;5008862;28;19971;-54
2022/08/17 12:56:46;;;;;;;;;;;;;;;21.45;76.02;101121.50;5010442;28;19909;-56
2022/08/17 12:59:11;;;;;;;;;;;;;;;21.45;76.01;101132.31;5009512;28;19955;-54
2022/08/17 13:01:40;;;;;;;;;;;;;;;21.43;76.31;101121.72;5007778;28;19910;-56
2022/08/17 13:04:06;;;;;;;;;;;;;;;21.40;76.39;101118.69;5003774;28;19921;-56
2022/08/17 13:06:33;;;;;;;;;;;;;;;21.38;76.48;101129.69;5003782;28;19963;-56
2022/08/17 13:09:12;;;;;;;;;;;;;;;21.38;76.56;101129.69;5014420;28;19909;-55
2022/08/17 13:11:45;;;;;;;;;;;;;;;21.38;76.93;101131.56;5007478;28;19915;-56
2022/08/17 13:14:10;;;;;;;;;;;;;;;21.39;76.82;101130.53;5008149;28;20397;-56
2022/08/17 13:16:36;;;;;;;;;;;;;;;21.40;76.91;101132.19;5012444;28;19916;-55